Time;durP1;ratioP1;P1;durP2;ratioP2;P2;SDS_P1;SDS_P2;PMS_P1;PMS_P2;Temp;Humidity;BMP_temperature;BMP_pressure;BME280_temperature;BME280_humidity;BME280_pressure;Samples;Min_cycle;Max_cycle;Signal;HPM_P1;HPM_P2
2021/03/27 00:01:42;;;;;;;7.03;5.10;;;;;;;11.00;59.02;100366.53;5011039;28;20037;-72
2021/03/27 00:04:44;;;;;;;9.23;5.38;;;;;;;11.01;59.13;100365.53;5005626;28;20063;-72
2021/03/27 00:07:14;;;;;;;7.05;5.30;;;;;;;11.01;59.20;100366.38;5004290;28;20175;-72
2021/03/27 00:09:57;;;;;;;8.38;5.43;;;;;;;11.00;59.34;100364.72;4996339;28;20031;-72
2021/03/27 00:12:38;;;;;;;8.73;5.47;;;;;;;10.96;59.42;100367.81;5008837;28;20084;-72
2021/03/27 00:15:24;;;;;;;11.47;5.80;;;;;;;11.00;59.41;100377.13;5000694;28;20030;-72
2021/03/27 00:18:03;;;;;;;8.93;5.53;;;;;;;11.01;59.57;100378.75;5008857;28;20403;-72
2021/03/27 00:20:54;;;;;;;7.72;5.45;;;;;;;11.04;59.36;100389.88;5009265;28;20354;-72
2021/03/27 00:23:28;;;;;;;8.30;6.20;;;;;;;11.08;59.37;100379.78;5010503;28;20193;-71
2021/03/27 00:26:03;;;;;;;9.63;6.25;;;;;;;11.04;59.43;100383.75;5009422;28;20042;-72
2021/03/27 00:28:53;;;;;;;8.90;6.25;;;;;;;11.04;59.65;100381.13;5011342;28;20568;-71
2021/03/27 00:31:27;;;;;;;9.25;5.93;;;;;;;11.04;59.82;100381.13;4991767;28;20380;-72
2021/03/27 00:33:57;;;;;;;10.60;6.22;;;;;;;11.05;59.79;100370.34;4995826;28;20029;-72
2021/03/27 00:36:27;;;;;;;10.55;5.68;;;;;;;11.07;59.54;100367.56;5009805;28;20515;-71
2021/03/27 00:39:15;;;;;;;8.65;6.10;;;;;;;11.12;59.87;100367.91;5010430;28;20050;-72
2021/03/27 00:41:54;;;;;;;9.65;5.90;;;;;;;11.12;59.80;100362.63;5001104;28;20038;-72
2021/03/27 00:44:22;;;;;;;7.70;5.43;;;;;;;11.15;60.02;100370.22;4995778;28;20498;-72
2021/03/27 00:46:48;;;;;;;7.78;5.15;;;;;;;11.15;59.94;100362.28;5009182;28;20260;-72
2021/03/27 00:49:19;;;;;;;7.32;5.10;;;;;;;11.21;59.65;100359.00;5005715;28;20034;-72
2021/03/27 00:52:05;;;;;;;7.53;5.85;;;;;;;11.23;59.70;100351.75;5000840;28;20495;-72
2021/03/27 00:54:38;;;;;;;10.57;5.65;;;;;;;11.24;59.30;100345.44;4996543;28;20043;-72
2021/03/27 00:57:12;;;;;;;9.10;5.68;;;;;;;11.27;59.50;100341.66;5007146;28;20037;-71
2021/03/27 00:59:58;;;;;;;8.20;5.55;;;;;;;11.33;59.30;100334.91;4993485;28;20058;-71
2021/03/27 01:02:25;;;;;;;8.38;5.72;;;;;;;11.36;58.86;100338.03;4994598;28;20092;-71
2021/03/27 01:04:53;;;;;;;9.05;5.60;;;;;;;11.42;58.97;100341.88;5010262;28;20510;-71
2021/03/27 01:07:21;;;;;;;10.55;6.32;;;;;;;11.51;58.45;100340.88;5009335;28;20030;-72
2021/03/27 01:10:07;;;;;;;10.68;6.10;;;;;;;11.54;58.21;100343.22;4994745;28;20048;-72
2021/03/27 01:12:36;;;;;;;8.75;5.53;;;;;;;11.51;58.75;100338.22;5006497;28;20550;-72
2021/03/27 01:15:09;;;;;;;8.10;5.65;;;;;;;11.51;58.33;100338.22;5002290;28;20044;-72
2021/03/27 01:17:40;;;;;;;9.80;6.05;;;;;;;11.57;58.35;100334.94;5006376;28;20041;-72
2021/03/27 01:20:32;;;;;;;8.48;5.75;;;;;;;11.53;58.30;100335.44;4991794;28;20576;-72
2021/03/27 01:22:58;;;;;;;10.32;6.47;;;;;;;11.54;58.40;100343.22;5001642;28;20413;-72
2021/03/27 01:25:27;;;;;;;12.73;6.72;;;;;;;11.59;57.94;100334.81;4996734;28;20035;-72
2021/03/27 01:28:03;;;;;;;9.43;6.22;;;;;;;11.56;58.02;100343.91;5009846;28;20040;-72
2021/03/27 01:30:34;;;;;;;9.95;6.10;;;;;;;11.54;58.28;100335.28;4996373;28;20110;-72
2021/03/27 01:33:23;;;;;;;9.32;6.35;;;;;;;11.55;58.12;100339.56;5002292;28;20498;-72
2021/03/27 01:35:53;;;;;;;10.10;6.13;;;;;;;11.52;58.46;100336.44;4995355;28;20040;-72
2021/03/27 01:38:23;;;;;;;10.50;6.50;;;;;;;11.47;58.52;100350.97;5007718;28;20369;-72
2021/03/27 01:41:12;;;;;;;11.55;7.03;;;;;;;11.49;58.37;100340.25;5009997;28;20030;-72
2021/03/27 01:43:53;;;;;;;10.73;6.70;;;;;;;11.53;58.23;100352.16;5000189;28;20125;-72
2021/03/27 01:46:55;;;;;;;8.77;6.20;;;;;;;11.48;58.78;100349.16;4991252;28;20064;-72
2021/03/27 01:49:33;;;;;;;13.27;7.22;;;;;;;11.45;58.93;100349.50;4995878;28;20018;-72
2021/03/27 01:52:27;;;;;;;10.60;6.70;;;;;;;11.39;59.10;100355.41;5005285;28;20048;-72
2021/03/27 01:55:08;;;;;;;11.35;6.93;;;;;;;11.36;59.54;100353.94;5009195;28;20034;-72
2021/03/27 01:57:57;;;;;;;9.98;6.38;;;;;;;11.27;59.80;100353.09;5009438;28;20060;-72
2021/03/27 02:00:30;;;;;;;10.55;6.15;;;;;;;11.20;60.30;100357.38;4991606;28;20037;-72
2021/03/27 02:03:07;;;;;;;8.40;6.28;;;;;;;11.11;61.15;100350.38;5001559;28;20038;-72
2021/03/27 02:05:40;;;;;;;13.70;7.40;;;;;;;11.11;60.85;100358.31;5009213;28;20106;-72
2021/03/27 02:08:22;;;;;;;9.60;6.47;;;;;;;11.11;60.94;100347.75;5006995;28;20038;-71
2021/03/27 02:11:09;;;;;;;10.35;6.38;;;;;;;11.07;61.31;100351.69;5007207;28;20391;-72
2021/03/27 02:13:38;;;;;;;8.55;6.35;;;;;;;11.05;61.57;100353.66;5004774;28;20076;-72
2021/03/27 02:16:16;;;;;;;8.93;6.57;;;;;;;11.02;61.88;100357.44;5001778;28;20093;-72
2021/03/27 02:19:26;;;;;;;9.27;6.72;;;;;;;11.05;61.91;100353.66;5007296;28;20026;-72
2021/03/27 02:21:57;;;;;;;9.45;6.20;;;;;;;10.99;62.33;100360.41;4999726;28;20073;-72
2021/03/27 02:25:00;;;;;;;10.35;6.82;;;;;;;10.97;62.37;100354.44;5008943;28;20040;-71
2021/03/27 02:27:44;;;;;;;9.32;6.30;;;;;;;10.96;62.77;100358.06;5008950;28;20048;-71
2021/03/27 02:30:14;;;;;;;10.63;6.70;;;;;;;10.98;63.11;100368.50;5002344;28;20038;-71
2021/03/27 02:32:52;;;;;;;11.40;7.00;;;;;;;10.95;63.67;100395.28;5000666;28;20030;-71
2021/03/27 02:35:26;;;;;;;8.25;5.97;;;;;;;10.79;65.39;100423.28;5000621;28;20061;-71
2021/03/27 02:38:04;;;;;;;9.98;6.47;;;;;;;10.47;70.98;100423.09;5013132;28;20128;-71
2021/03/27 02:40:36;;;;;;;9.15;5.18;;;;;;;10.22;71.08;100446.59;5012772;28;20030;-72
2021/03/27 02:43:14;;;;;;;8.68;5.78;;;;;;;10.15;72.48;100441.13;5005664;28;20060;-72
2021/03/27 02:45:48;;;;;;;8.02;4.85;;;;;;;9.89;75.14;100446.31;5011886;28;20568;-72
2021/03/27 02:48:50;;;;;;;8.15;5.10;;;;;;;9.85;74.89;100452.88;5008656;28;20125;-71
2021/03/27 02:51:38;;;;;;;7.25;4.88;;;;;;;9.74;77.08;100455.72;5011481;28;20113;-71
2021/03/27 02:54:26;;;;;;;7.35;4.70;;;;;;;9.66;77.10;100461.72;4988688;28;20022;-71
2021/03/27 02:56:59;;;;;;;9.07;5.80;;;;;;;9.62;77.35;100464.81;5012042;28;20033;-72
2021/03/27 02:59:40;;;;;;;8.23;5.28;;;;;;;9.60;77.47;100464.13;5012753;28;20060;-71
2021/03/27 03:02:36;;;;;;;9.27;6.17;;;;;;;9.50;78.19;100478.19;5011861;28;20565;-72
2021/03/27 03:05:04;;;;;;;8.80;5.03;;;;;;;9.53;77.44;100477.94;5012101;28;20038;-72
2021/03/27 03:08:06;;;;;;;7.50;5.60;;;;;;;9.48;77.47;100480.16;5011283;28;20502;-72
2021/03/27 03:10:37;;;;;;;8.43;5.15;;;;;;;9.42;77.78;100488.66;4972707;28;20037;-72
2021/03/27 03:13:15;;;;;;;;;;;;;;;9.41;77.52;100492.25;5005739;28;20029;-72
2021/03/27 03:16:18;;;;;;;9.30;5.40;;;;;;;9.38;76.73;100489.09;4996692;28;20313;-72
2021/03/27 03:18:59;;;;;;;8.98;5.40;;;;;;;9.44;76.74;100499.91;5004441;28;20121;-72
2021/03/27 03:21:39;;;;;;;7.50;4.50;;;;;;;9.44;76.12;100504.34;5012773;28;20037;-72
2021/03/27 03:24:17;;;;;;;6.57;3.40;;;;;;;9.43;75.98;100506.16;5012014;28;20042;-71
2021/03/27 03:27:17;;;;;;;6.63;4.00;;;;;;;9.42;76.08;100525.63;5005909;28;20653;-72
2021/03/27 03:29:55;;;;;;;5.60;3.53;;;;;;;9.53;74.78;100536.00;5011795;28;20507;-72
2021/03/27 03:32:59;;;;;;;6.22;3.65;;;;;;;9.51;74.05;100556.44;5011550;28;20499;-72
2021/03/27 03:35:48;;;;;;;7.13;3.10;;;;;;;9.62;73.52;100568.59;4964538;28;20030;-71
2021/03/27 03:38:50;;;;;;;4.55;2.40;;;;;;;9.62;70.10;100573.88;4990902;28;20034;-72
2021/03/27 03:41:34;;;;;;;;;;;;;;;9.64;69.65;100579.03;4988845;28;20117;-71
2021/03/27 03:44:07;;;;;;;2.47;1.40;;;;;;;9.55;67.78;100588.63;4999547;28;19917;-71
2021/03/27 03:46:48;;;;;;;2.30;1.50;;;;;;;9.51;67.01;100579.31;5006998;28;20041;-71
2021/03/27 03:49:48;;;;;;;3.35;1.45;;;;;;;9.53;66.43;100580.03;4993944;28;20054;-72
2021/03/27 03:52:36;;;;;;;1.60;1.13;;;;;;;9.57;63.61;100579.59;4871715;29;20119;-71
2021/03/27 03:55:36;;;;;;;2.53;0.93;;;;;;;9.52;63.80;100578.38;4996204;28;20120;-71
2021/03/27 03:58:20;;;;;;;1.88;0.90;;;;;;;9.39;64.55;100597.16;4993204;28;20068;-71
2021/03/27 04:00:58;;;;;;;2.42;0.82;;;;;;;9.32;64.29;100601.34;5011812;28;20561;-70
2021/03/27 04:03:33;;;;;;;1.25;0.85;;;;;;;9.33;62.33;100614.38;5013425;28;20029;-71
2021/03/27 04:06:06;;;;;;;0.95;0.70;;;;;;;9.33;63.05;100635.50;5009213;28;20631;-71
2021/03/27 04:08:45;;;;;;;1.23;0.80;;;;;;;9.28;62.93;100643.00;5001097;28;20394;-71
2021/03/27 04:11:35;;;;;;;1.50;0.90;;;;;;;9.24;61.86;100651.34;5006692;28;20026;-77
2021/03/27 04:14:15;;;;;;;1.00;0.57;;;;;;;9.12;64.34;100663.84;5002359;28;20019;-73
2021/03/27 04:16:43;;;;;;;1.95;0.80;;;;;;;9.11;64.48;100672.72;5012832;28;20037;-72
2021/03/27 04:19:19;;;;;;;1.63;0.80;;;;;;;9.03;64.88;100689.22;4994573;28;20042;-73
2021/03/27 04:22:11;;;;;;;1.73;0.60;;;;;;;8.98;64.29;100717.00;5010981;28;20379;-71
2021/03/27 04:24:50;;;;;;;1.50;0.80;;;;;;;8.90;64.32;100715.88;5008015;28;20038;-72
2021/03/27 04:27:30;;;;;;;0.98;0.57;;;;;;;8.82;65.22;100730.69;4983109;28;20042;-73
2021/03/27 04:30:08;;;;;;;0.75;0.60;;;;;;;8.73;65.58;100742.91;4992956;28;20164;-70
2021/03/27 04:33:10;;;;;;;0.70;0.60;;;;;;;8.62;65.77;100756.19;4996870;28;20418;-71
2021/03/27 04:35:54;;;;;;;0.70;0.60;;;;;;;8.57;66.64;100768.94;4987480;28;20130;-73
2021/03/27 04:38:31;;;;;;;0.85;0.60;;;;;;;8.56;66.03;100786.56;5005992;28;20034;-75
2021/03/27 04:41:20;;;;;;;1.35;0.70;;;;;;;8.48;66.63;100787.19;5001530;28;20092;-73
2021/03/27 04:43:52;;;;;;;1.60;0.70;;;;;;;8.36;66.29;100797.94;5008071;28;20041;-73
2021/03/27 04:46:28;;;;;;;1.90;0.80;;;;;;;8.38;65.31;100814.44;5009848;28;20120;-72
2021/03/27 04:49:05;;;;;;;0.57;0.43;;;;;;;8.32;63.41;100821.09;5009972;28;20064;-73
2021/03/27 04:51:48;;;;;;;1.42;0.60;;;;;;;8.21;63.60;100821.16;5010678;28;20029;-72
2021/03/27 04:54:31;;;;;;;1.65;0.43;;;;;;;8.11;63.71;100836.88;5009689;28;20224;-73
2021/03/27 04:57:02;;;;;;;2.40;0.40;;;;;;;8.04;63.07;100827.81;5002643;28;20042;-72
2021/03/27 04:59:49;;;;;;;0.40;0.40;;;;;;;7.80;62.86;100833.34;5005201;28;20505;-73
2021/03/27 05:02:17;;;;;;;0.63;0.52;;;;;;;7.77;62.56;100844.09;5004182;28;20027;-73
2021/03/27 05:05:04;;;;;;;0.90;0.50;;;;;;;7.56;63.28;100844.91;5005322;28;20042;-72
2021/03/27 05:08:03;;;;;;;1.35;0.77;;;;;;;7.56;62.68;100852.78;5010157;28;20034;-73
2021/03/27 05:10:47;;;;;;;0.50;0.50;;;;;;;7.51;62.71;100862.00;5006175;28;20513;-72
2021/03/27 05:13:19;;;;;;;0.80;0.60;;;;;;;7.47;63.39;100885.09;4999579;28;20113;-72
2021/03/27 05:16:07;;;;;;;1.90;0.80;;;;;;;7.42;63.60;100893.38;4994529;28;20038;-71
2021/03/27 05:18:38;;;;;;;1.92;0.75;;;;;;;7.50;63.40;100902.44;4993574;28;20415;-72
2021/03/27 05:21:27;;;;;;;1.80;0.80;;;;;;;7.39;63.86;100924.38;4999488;28;20048;-72
2021/03/27 05:24:04;;;;;;;1.38;0.70;;;;;;;7.32;64.18;100918.75;5010527;28;20042;-72
2021/03/27 05:26:48;;;;;;;1.38;0.70;;;;;;;7.17;64.77;100919.94;5007225;28;20045;-72
2021/03/27 05:29:37;;;;;;;0.93;0.70;;;;;;;7.11;65.14;100938.84;5010095;28;20030;-72
2021/03/27 05:32:39;;;;;;;1.52;0.70;;;;;;;7.10;64.24;100940.59;5001218;28;20049;-72
2021/03/27 05:35:32;;;;;;;1.73;0.68;;;;;;;7.03;64.11;100947.28;5002597;28;20562;-72
2021/03/27 05:38:20;;;;;;;1.50;0.80;;;;;;;6.96;64.22;100954.84;5002571;28;20030;-72
2021/03/27 05:41:11;;;;;;;1.50;0.70;;;;;;;6.89;64.79;100964.16;5008911;28;20125;-72
2021/03/27 05:44:19;;;;;;;2.78;0.80;;;;;;;6.89;63.10;100966.78;5009697;28;20395;-72
2021/03/27 05:46:57;;;;;;;2.08;0.70;;;;;;;6.94;63.17;100972.53;5004669;28;20046;-72
2021/03/27 05:49:42;;;;;;;2.25;1.08;;;;;;;6.89;63.27;100966.78;4991573;28;20861;-72
2021/03/27 05:52:52;;;;;;;1.90;1.10;;;;;;;6.94;63.19;100975.16;5006529;28;20066;-73
2021/03/27 05:55:22;;;;;;;1.38;0.90;;;;;;;6.92;64.31;100974.41;4973932;28;20026;-72
2021/03/27 05:58:19;;;;;;;1.67;0.80;;;;;;;6.98;64.50;100981.84;5009743;28;20038;-72
2021/03/27 06:00:53;;;;;;;2.45;1.00;;;;;;;7.04;62.73;100995.47;5007457;28;20060;-72
2021/03/27 06:03:24;;;;;;;2.17;0.90;;;;;;;6.95;62.88;101000.47;5009735;28;20406;-72
2021/03/27 06:06:20;;;;;;;;;;;;;;;6.96;62.37;101003.94;4991584;28;20046;-73
2021/03/27 06:08:57;;;;;;;4.03;1.35;;;;;;;6.96;62.53;101003.94;4989025;28;20007;-73
2021/03/27 06:11:32;;;;;;;2.78;1.00;;;;;;;7.03;61.97;101005.13;5005359;28;20037;-72
2021/03/27 06:14:16;;;;;;;4.05;1.25;;;;;;;7.04;61.46;101013.88;4999874;28;20027;-72
2021/03/27 06:16:53;;;;;;;2.47;1.23;;;;;;;7.02;61.02;101016.63;5000277;28;20046;-71
2021/03/27 06:19:24;;;;;;;3.88;1.35;;;;;;;7.00;62.28;101016.72;5002350;28;20509;-71
2021/03/27 06:22:08;;;;;;;1.92;1.30;;;;;;;7.05;61.50;101023.44;5000915;28;20065;-71
2021/03/27 06:25:26;;;;;;;2.92;1.10;;;;;;;7.04;62.31;101030.50;5008553;28;20042;-71
2021/03/27 06:28:28;;;;;;;3.53;1.27;;;;;;;7.14;61.78;101044.59;4948060;29;20062;-71
2021/03/27 06:31:25;;;;;;;3.33;1.30;;;;;;;7.18;62.27;101053.13;5008691;28;20064;-71
2021/03/27 06:34:15;;;;;;;2.53;1.55;;;;;;;7.21;62.43;101047.63;5004391;28;20081;-71
2021/03/27 06:36:59;;;;;;;3.45;1.80;;;;;;;7.23;61.23;101062.31;5007221;28;20372;-71
2021/03/27 06:39:28;;;;;;;2.00;1.50;;;;;;;7.24;62.53;101068.41;5009084;28;20056;-71
2021/03/27 06:42:13;;;;;;;4.20;2.20;;;;;;;7.36;62.23;101067.47;5007630;28;20383;-71
2021/03/27 06:45:03;;;;;;;3.35;2.03;;;;;;;7.24;62.85;101084.19;5007501;28;20182;-71
2021/03/27 06:47:47;;;;;;;4.10;2.30;;;;;;;7.42;59.45;101082.81;5002693;28;20041;-71
2021/03/27 06:50:49;;;;;;;4.28;2.03;;;;;;;7.27;60.25;101089.25;4988018;28;20493;-70
2021/03/27 06:53:34;;;;;;;2.15;1.75;;;;;;;7.22;57.70;101089.59;4994441;28;20116;-70
2021/03/27 06:56:33;;;;;;;3.60;1.90;;;;;;;7.24;57.57;101081.56;5000937;28;20131;-71
2021/03/27 06:59:14;;;;;;;5.32;1.80;;;;;;;7.30;56.01;101085.53;5008761;28;20499;-72
2021/03/27 07:02:12;;;;;;;2.42;1.40;;;;;;;7.32;56.73;101092.38;5009180;28;20116;-71
2021/03/27 07:05:05;;;;;;;2.60;1.33;;;;;;;7.33;57.73;101091.41;5005349;28;20050;-72
2021/03/27 07:07:42;;;;;;;3.13;1.88;;;;;;;7.38;57.37;101102.41;5009691;28;20037;-71
2021/03/27 07:10:43;;;;;;;4.88;1.45;;;;;;;7.34;56.06;101103.63;5006306;28;20112;-70
2021/03/27 07:13:17;;;;;;;2.13;1.10;;;;;;;7.35;56.22;101104.44;5003239;28;20121;-70
2021/03/27 07:16:02;;;;;;;3.80;1.10;;;;;;;7.29;57.42;101110.16;4991771;28;20495;-70
2021/03/27 07:18:40;;;;;;;4.05;1.25;;;;;;;7.45;57.39;101118.56;4991335;28;20046;-71
2021/03/27 07:21:24;;;;;;;2.67;1.23;;;;;;;7.58;57.31;101115.81;5004211;28;20136;-71
2021/03/27 07:24:12;;;;;;;1.92;1.00;;;;;;;7.55;58.11;101116.91;5010089;28;20042;-70
2021/03/27 07:27:02;;;;;;;2.72;1.08;;;;;;;7.62;57.25;101119.91;5011295;28;20057;-72
2021/03/27 07:29:51;;;;;;;2.47;0.90;;;;;;;7.53;56.26;101124.09;4994592;28;20034;-72
2021/03/27 07:32:37;;;;;;;2.50;1.20;;;;;;;7.45;56.33;101124.66;5010397;28;20044;-73
2021/03/27 07:35:34;;;;;;;5.20;1.10;;;;;;;7.45;55.92;101121.19;5004672;28;20438;-72
2021/03/27 07:38:57;;;;;;;5.00;1.13;;;;;;;7.38;55.78;101135.78;5000411;28;20511;-72
2021/03/27 07:41:48;;;;;;;3.38;1.60;;;;;;;7.52;57.29;101145.25;4931244;29;20055;-72
2021/03/27 07:44:19;;;;;;;;;;;;;;;7.92;57.25;101150.09;4915467;29;20084;-72
2021/03/27 07:47:03;;;;;;;3.83;1.20;;;;;;;7.69;56.59;101141.34;4985200;28;20015;-73
2021/03/27 07:49:56;;;;;;;4.00;1.23;;;;;;;7.57;54.57;101153.63;5011897;28;20069;-73
2021/03/27 07:52:52;;;;;;;3.08;1.23;;;;;;;7.53;54.55;101152.19;5004895;28;20049;-74
2021/03/27 07:55:24;;;;;;;4.63;1.33;;;;;;;7.41;54.07;101148.69;5006279;28;20026;-72
2021/03/27 07:58:22;;;;;;;5.97;1.52;;;;;;;7.33;53.37;101146.66;5005897;28;20041;-73
2021/03/27 08:01:12;;;;;;;3.78;1.23;;;;;;;7.35;53.86;101155.25;5010351;28;20038;-73
2021/03/27 08:04:04;;;;;;;5.05;1.08;;;;;;;7.61;54.43;101152.47;5011602;28;20068;-73
2021/03/27 08:06:51;;;;;;;1.90;0.90;;;;;;;7.86;55.12;101149.63;5010454;28;20117;-73
2021/03/27 08:09:34;;;;;;;3.22;1.38;;;;;;;7.78;54.14;101153.78;5006357;28;20037;-72
2021/03/27 08:12:44;;;;;;;3.88;1.30;;;;;;;7.62;54.86;101165.47;4985711;28;20037;-73
2021/03/27 08:15:30;;;;;;;3.05;1.25;;;;;;;7.62;54.95;101169.91;5004842;28;20064;-73
2021/03/27 08:18:29;;;;;;;4.47;1.30;;;;;;;7.78;55.07;101159.88;4993756;28;20064;-73
2021/03/27 08:21:00;;;;;;;2.97;1.00;;;;;;;8.28;56.70;101170.91;4991088;28;20041;-72
2021/03/27 08:23:38;;;;;;;3.58;1.40;;;;;;;9.88;51.47;101168.38;5007102;28;20037;-73
2021/03/27 08:26:42;;;;;;;3.97;1.25;;;;;;;11.12;49.14;101182.22;5008949;28;20450;-74
2021/03/27 08:29:45;;;;;;;4.40;1.10;;;;;;;12.10;43.30;101200.47;5001520;28;20100;-72
2021/03/27 08:32:38;;;;;;;4.00;1.20;;;;;;;13.04;41.70;101179.97;4993747;28;20033;-72
2021/03/27 08:35:04;;;;;;;4.07;1.10;;;;;;;13.69;38.59;101204.47;5002876;28;20109;-70
2021/03/27 08:37:35;;;;;;;3.05;1.10;;;;;;;14.21;37.68;101209.75;4993221;28;20145;-72
2021/03/27 08:40:00;;;;;;;;;;;;;;;15.11;36.55;101209.25;4999381;28;20455;-70
2021/03/27 08:43:03;;;;;;;2.63;0.75;;;;;;;16.03;34.78;101214.38;4996529;28;19921;-70
2021/03/27 08:45:50;;;;;;;2.78;1.00;;;;;;;16.51;35.49;101212.53;5010159;28;20038;-71
2021/03/27 08:48:46;;;;;;;2.47;1.00;;;;;;;16.56;33.98;101215.50;5005355;28;20072;-70
2021/03/27 08:51:32;;;;;;;3.45;1.33;;;;;;;15.02;36.56;101212.88;5008595;28;20034;-70
2021/03/27 08:54:33;;;;;;;2.63;1.20;;;;;;;14.88;36.95;101227.66;5006977;28;20031;-70
2021/03/27 08:57:32;;;;;;;2.83;0.90;;;;;;;14.41;37.04;101236.13;4984981;28;20525;-70
2021/03/27 09:00:36;;;;;;;3.25;0.80;;;;;;;13.69;38.07;101228.38;4999963;28;20030;-70
2021/03/27 09:03:20;;;;;;;2.80;1.10;;;;;;;12.56;40.36;101239.50;5009501;28;20465;-70
2021/03/27 09:06:40;;;;;;;2.40;0.88;;;;;;;11.60;43.39;101236.97;4999985;28;20046;-72
2021/03/27 09:09:21;;;;;;;2.20;0.80;;;;;;;11.42;42.30;101239.50;4907167;29;20103;-71
2021/03/27 09:12:11;;;;;;;2.92;1.33;;;;;;;10.96;43.06;101249.75;4983665;28;20415;-72
2021/03/27 09:14:55;;;;;;;2.78;0.73;;;;;;;11.17;43.62;101259.41;5006304;28;20041;-72
2021/03/27 09:17:30;;;;;;;3.65;1.02;;;;;;;10.93;43.88;101252.69;4997072;28;20029;-70
2021/03/27 09:19:58;;;;;;;3.47;1.08;;;;;;;11.15;43.49;101264.81;5009657;28;20045;-70
2021/03/27 09:22:23;;;;;;;2.78;1.33;;;;;;;10.60;43.33;101256.47;5009742;28;20495;-70
2021/03/27 09:25:13;;;;;;;4.60;1.00;;;;;;;10.25;45.50;101260.38;5009941;28;20107;-71
2021/03/27 09:27:45;;;;;;;5.13;1.00;;;;;;;9.94;47.21;101270.88;5007889;28;20068;-70
2021/03/27 09:30:35;;;;;;;3.33;1.08;;;;;;;10.01;45.37;101273.88;5003829;28;20419;-70
2021/03/27 09:33:10;;;;;;;2.60;1.00;;;;;;;9.86;45.39;101272.50;4997341;28;20446;-72
2021/03/27 09:35:57;;;;;;;3.13;1.00;;;;;;;9.81;47.55;101272.88;5000781;28;20035;-73
2021/03/27 09:38:35;;;;;;;5.80;1.00;;;;;;;10.44;46.08;101269.34;5004574;28;20042;-69
2021/03/27 09:41:06;;;;;;;4.47;1.20;;;;;;;10.52;45.37;101257.16;5009763;28;20408;-72
2021/03/27 09:43:44;;;;;;;2.85;0.85;;;;;;;10.41;46.22;101271.28;5000765;28;20069;-70
2021/03/27 09:46:39;;;;;;;4.25;1.00;;;;;;;10.46;46.45;101278.84;5002903;28;20527;-71
2021/03/27 09:49:32;;;;;;;4.60;1.15;;;;;;;11.15;44.40;101267.47;4962459;28;20034;-71
2021/03/27 09:52:34;;;;;;;3.92;1.38;;;;;;;11.35;44.33;101267.50;5009251;28;20038;-71
2021/03/27 09:55:19;;;;;;;;;;;;;;;11.93;42.38;101269.31;5009275;28;20462;-71
2021/03/27 09:57:44;;;;;;;5.13;0.90;;;;;;;11.94;40.21;101269.19;5009661;28;19937;-72
2021/03/27 10:00:23;;;;;;;3.13;0.93;;;;;;;12.00;40.98;101273.91;5008838;28;20040;-72
2021/03/27 10:03:01;;;;;;;4.32;1.02;;;;;;;12.39;40.83;101271.13;4995567;28;20327;-71
2021/03/27 10:05:44;;;;;;;4.15;1.30;;;;;;;12.26;39.61;101276.75;5003802;28;20064;-71
2021/03/27 10:08:25;;;;;;;4.97;0.95;;;;;;;12.49;40.25;101277.25;4992553;28;20121;-72
2021/03/27 10:11:03;;;;;;;3.75;0.93;;;;;;;12.66;41.06;101283.59;4994166;28;20088;-71
2021/03/27 10:13:49;;;;;;;3.55;1.00;;;;;;;12.92;38.15;101282.91;5009164;28;20037;-71
2021/03/27 10:16:23;;;;;;;7.78;1.27;;;;;;;12.59;38.58;101273.72;5003434;28;20057;-71
2021/03/27 10:19:12;;;;;;;5.15;1.15;;;;;;;12.06;39.66;101273.34;4992517;28;20105;-72
2021/03/27 10:21:48;;;;;;;6.32;1.50;;;;;;;12.33;38.68;101287.63;4991384;28;20581;-75
2021/03/27 10:24:31;;;;;;;4.82;1.10;;;;;;;12.41;37.89;101290.38;5003196;28;20293;-72
2021/03/27 10:27:06;;;;;;;4.20;1.05;;;;;;;11.94;39.68;101284.22;5005611;28;20045;-72
2021/03/27 10:29:58;;;;;;;4.28;1.02;;;;;;;11.99;39.72;101290.78;5009326;28;20034;-71
2021/03/27 10:32:39;;;;;;;5.03;1.10;;;;;;;11.76;42.73;101292.03;5006982;28;20120;-72
2021/03/27 10:35:25;;;;;;;2.85;1.02;;;;;;;11.89;39.95;101285.50;4987531;28;20205;-72
2021/03/27 10:38:05;;;;;;;3.10;0.90;;;;;;;11.98;39.67;101283.81;5001463;28;20041;-72
2021/03/27 10:40:41;;;;;;;8.50;1.67;;;;;;;11.85;39.82;101293.84;5003953;28;20407;-73
2021/03/27 10:43:29;;;;;;;3.88;1.10;;;;;;;11.70;39.83;101296.06;4998702;28;20562;-73
2021/03/27 10:46:25;;;;;;;4.57;0.90;;;;;;;11.51;41.59;101296.06;5003496;28;20051;-73
2021/03/27 10:49:01;;;;;;;4.13;1.10;;;;;;;11.17;43.71;101289.34;4990905;28;20048;-72
2021/03/27 10:51:53;;;;;;;4.80;0.98;;;;;;;11.00;44.38;101290.84;4993755;28;20038;-71
2021/03/27 10:54:36;;;;;;;4.45;1.10;;;;;;;11.35;42.65;101294.81;4995797;28;20026;-70
2021/03/27 10:57:18;;;;;;;4.45;1.25;;;;;;;11.22;42.33;101299.53;5005453;28;20026;-71
2021/03/27 11:00:01;;;;;;;3.28;1.30;;;;;;;10.95;47.88;101308.13;4995053;28;20041;-71
2021/03/27 11:02:42;;;;;;;4.97;1.02;;;;;;;10.08;56.96;101322.59;5011280;28;20038;-71
2021/03/27 11:05:26;;;;;;;;;;;;;;;9.37;61.54;101309.09;5000647;28;20034;-72
2021/03/27 11:08:03;;;;;;;3.03;0.80;;;;;;;9.22;63.35;101310.31;5008564;28;19925;-71
2021/03/27 11:10:34;;;;;;;4.35;1.10;;;;;;;9.16;66.12;101326.66;5005114;28;20081;-71
2021/03/27 11:13:18;;;;;;;6.05;1.23;;;;;;;9.29;65.51;101316.75;5002338;28;20034;-71
2021/03/27 11:15:50;;;;;;;4.47;1.10;;;;;;;9.31;56.34;101322.75;5010581;28;20033;-72
2021/03/27 11:18:15;;;;;;;;;;;;;;;9.19;63.96;101316.66;5012597;28;20600;-72
2021/03/27 11:21:09;;;;;;;5.73;1.30;;;;;;;9.60;62.57;101314.28;5012056;28;19921;-71
2021/03/27 11:23:42;;;;;;;3.22;1.00;;;;;;;9.94;62.80;101317.63;5011018;28;20037;-71
2021/03/27 11:26:45;;;;;;;5.32;1.60;;;;;;;10.45;61.77;101321.28;5010193;28;20133;-71
2021/03/27 11:29:27;;;;;;;3.10;1.05;;;;;;;10.62;56.74;101324.16;5007734;28;20034;-71
2021/03/27 11:32:04;;;;;;;8.75;1.50;;;;;;;10.38;57.96;101326.25;5010950;28;20038;-71
2021/03/27 11:34:38;;;;;;;6.20;1.52;;;;;;;9.98;57.68;101348.91;4992821;28;20056;-72
2021/03/27 11:37:18;;;;;;;5.35;1.42;;;;;;;9.08;68.57;101364.19;5004552;28;20100;-73
2021/03/27 11:39:53;;;;;;;4.30;1.30;;;;;;;8.59;70.19;101373.31;5010432;28;20121;-74
2021/03/27 11:42:44;;;;;;;4.30;1.30;;;;;;;8.48;72.42;101363.56;5011254;28;20038;-73
2021/03/27 11:45:22;;;;;;;6.57;1.30;;;;;;;8.54;73.14;101363.09;5006061;28;20031;-73
2021/03/27 11:48:12;;;;;;;6.15;1.40;;;;;;;8.70;69.58;101360.13;5007210;28;20030;-73
2021/03/27 11:50:59;;;;;;;6.03;1.65;;;;;;;8.85;69.93;101348.38;5011399;28;20103;-73
2021/03/27 11:53:37;;;;;;;7.05;1.95;;;;;;;8.97;71.83;101364.22;5010832;28;20081;-73
2021/03/27 11:56:20;;;;;;;5.00;1.35;;;;;;;9.38;61.83;101366.19;5003725;28;20513;-73
2021/03/27 12:02:18;;;;;;;1.77;0.75;;;;;;;9.55;63.12;101362.16;5010976;28;20060;-74
2021/03/27 12:04:56;;;;;;;3.20;0.90;;;;;;;9.50;57.29;101370.47;5010617;28;20130;-74
2021/03/27 12:07:37;;;;;;;4.40;0.85;;;;;;;9.54;56.99;101350.78;5010745;28;20038;-74
2021/03/27 12:10:24;;;;;;;3.33;0.80;;;;;;;9.60;55.41;101382.94;5003853;28;20069;-73
2021/03/27 12:12:58;;;;;;;5.38;2.20;;;;;;;9.28;56.06;101376.63;5009691;28;20041;-75
2021/03/27 12:16:20;;;;;;;4.60;1.17;;;;;;;9.15;56.94;101370.66;5010494;28;20406;-73
2021/03/27 12:19:11;;;;;;;4.05;1.35;;;;;;;9.28;59.87;101378.44;4928367;29;20060;-73
2021/03/27 12:21:46;;;;;;;4.28;1.17;;;;;;;9.24;57.55;101379.63;4930397;29;20116;-73
2021/03/27 12:24:53;;;;;;;4.07;1.25;;;;;;;9.27;56.71;101376.75;4990627;28;20045;-74
2021/03/27 12:27:24;;;;;;;5.38;1.27;;;;;;;9.40;55.25;101368.69;5010824;28;20034;-75
2021/03/27 12:30:08;;;;;;;;;;;;;;;9.57;55.96;101374.28;5011103;28;20033;-74
2021/03/27 12:32:34;;;;;;;6.43;1.20;;;;;;;10.06;56.71;101371.22;5005177;28;19914;-73
2021/03/27 12:35:12;;;;;;;2.72;0.90;;;;;;;10.29;52.70;101367.53;5006347;28;20037;-75
2021/03/27 12:37:45;;;;;;;3.25;0.98;;;;;;;10.46;54.33;101365.25;4992106;28;20443;-74
2021/03/27 12:40:30;;;;;;;4.03;1.00;;;;;;;10.85;49.57;101358.38;5009833;28;20245;-76
2021/03/27 12:43:04;;;;;;;2.72;1.10;;;;;;;10.93;48.90;101355.03;5004097;28;20057;-73
2021/03/27 12:45:37;;;;;;;2.78;0.93;;;;;;;10.88;49.40;101371.31;5010434;28;20038;-72
2021/03/27 12:48:26;;;;;;;3.08;1.00;;;;;;;10.93;50.88;101357.69;5008462;28;20041;-73
2021/03/27 12:51:33;;;;;;;3.17;0.90;;;;;;;10.95;48.96;101359.22;5010748;28;20037;-72